sensor_id;sensor_type;location;lat;lon;timestamp;P1;durP1;ratioP1;P2;durP2;ratioP2
60088;SDS011;45961;53.574;55.878;2023-03-01T00:00:27;6.32;;;4.80;;
60088;SDS011;45961;53.574;55.878;2023-03-01T00:01:29;7.00;;;5.20;;
60088;SDS011;45961;53.574;55.878;2023-03-01T00:02:31;7.47;;;5.25;;
60088;SDS011;45961;53.574;55.878;2023-03-01T00:03:32;8.73;;;5.15;;
60088;SDS011;45961;53.574;55.878;2023-03-01T00:04:35;6.70;;;4.38;;
60088;SDS011;45961;53.574;55.878;2023-03-01T00:05:36;7.32;;;4.70;;
60088;SDS011;45961;53.574;55.878;2023-03-01T00:06:43;5.72;;;4.72;;
60088;SDS011;45961;53.574;55.878;2023-03-01T00:07:48;7.55;;;5.47;;
60088;SDS011;45961;53.574;55.878;2023-03-01T00:08:49;7.40;;;4.88;;
60088;SDS011;45961;53.574;55.878;2023-03-01T00:11:04;5.82;;;4.05;;
60088;SDS011;45961;53.574;55.878;2023-03-01T00:12:17;7.75;;;4.85;;
60088;SDS011;45961;53.574;55.878;2023-03-01T00:13:21;6.93;;;4.88;;
60088;SDS011;45961;53.574;55.878;2023-03-01T00:14:22;6.07;;;4.07;;
60088;SDS011;45961;53.574;55.878;2023-03-01T00:15:24;5.65;;;4.60;;
60088;SDS011;45961;53.574;55.878;2023-03-01T00:16:26;7.10;;;5.40;;
60088;SDS011;45961;53.574;55.878;2023-03-01T00:17:33;6.93;;;5.00;;
60088;SDS011;45961;53.574;55.878;2023-03-01T00:18:34;7.32;;;5.03;;
60088;SDS011;45961;53.574;55.878;2023-03-01T00:19:36;7.55;;;5.28;;
60088;SDS011;45961;53.574;55.878;2023-03-01T00:20:37;6.45;;;4.85;;
60088;SDS011;45961;53.574;55.878;2023-03-01T00:21:38;6.30;;;4.85;;
60088;SDS011;45961;53.574;55.878;2023-03-01T00:23:40;8.07;;;5.00;;
60088;SDS011;45961;53.574;55.878;2023-03-01T00:24:41;6.00;;;5.10;;
60088;SDS011;45961;53.574;55.878;2023-03-01T00:25:42;7.80;;;5.70;;
60088;SDS011;45961;53.574;55.878;2023-03-01T00:26:44;8.07;;;4.95;;
60088;SDS011;45961;53.574;55.878;2023-03-01T00:27:46;7.03;;;4.93;;
60088;SDS011;45961;53.574;55.878;2023-03-01T00:28:49;6.68;;;4.70;;
60088;SDS011;45961;53.574;55.878;2023-03-01T00:29:52;6.53;;;4.78;;
60088;SDS011;45961;53.574;55.878;2023-03-01T00:30:54;7.72;;;4.93;;
60088;SDS011;45961;53.574;55.878;2023-03-01T00:31:58;6.80;;;4.55;;
60088;SDS011;45961;53.574;55.878;2023-03-01T00:33:00;6.97;;;5.15;;
60088;SDS011;45961;53.574;55.878;2023-03-01T00:34:02;8.15;;;5.65;;
60088;SDS011;45961;53.574;55.878;2023-03-01T00:35:05;7.85;;;5.65;;
60088;SDS011;45961;53.574;55.878;2023-03-01T00:36:07;7.55;;;5.03;;
60088;SDS011;45961;53.574;55.878;2023-03-01T00:37:09;6.20;;;4.32;;
60088;SDS011;45961;53.574;55.878;2023-03-01T00:38:11;6.93;;;4.90;;
60088;SDS011;45961;53.574;55.878;2023-03-01T00:39:14;8.45;;;5.07;;
60088;SDS011;45961;53.574;55.878;2023-03-01T00:40:15;5.65;;;4.40;;
60088;SDS011;45961;53.574;55.878;2023-03-01T00:41:17;6.50;;;4.63;;
60088;SDS011;45961;53.574;55.878;2023-03-01T00:42:20;6.25;;;4.65;;
60088;SDS011;45961;53.574;55.878;2023-03-01T00:43:22;6.00;;;4.18;;
60088;SDS011;45961;53.574;55.878;2023-03-01T00:44:24;7.43;;;5.07;;
60088;SDS011;45961;53.574;55.878;2023-03-01T00:45:25;6.40;;;4.70;;
60088;SDS011;45961;53.574;55.878;2023-03-01T00:46:27;9.90;;;4.88;;
60088;SDS011;45961;53.574;55.878;2023-03-01T00:47:30;8.38;;;5.18;;
60088;SDS011;45961;53.574;55.878;2023-03-01T00:48:31;6.15;;;4.45;;
60088;SDS011;45961;53.574;55.878;2023-03-01T00:49:33;7.00;;;5.05;;
60088;SDS011;45961;53.574;55.878;2023-03-01T00:50:35;7.25;;;4.68;;
60088;SDS011;45961;53.574;55.878;2023-03-01T00:52:39;7.15;;;4.80;;
60088;SDS011;45961;53.574;55.878;2023-03-01T00:53:41;7.07;;;4.47;;
60088;SDS011;45961;53.574;55.878;2023-03-01T00:54:42;7.15;;;4.43;;
60088;SDS011;45961;53.574;55.878;2023-03-01T00:55:43;7.38;;;4.60;;
60088;SDS011;45961;53.574;55.878;2023-03-01T00:56:44;6.20;;;4.50;;
60088;SDS011;45961;53.574;55.878;2023-03-01T00:57:46;7.95;;;5.13;;
60088;SDS011;45961;53.574;55.878;2023-03-01T00:58:47;6.70;;;5.57;;
60088;SDS011;45961;53.574;55.878;2023-03-01T00:59:48;9.48;;;6.20;;
60088;SDS011;45961;53.574;55.878;2023-03-01T01:00:49;9.18;;;6.47;;
60088;SDS011;45961;53.574;55.878;2023-03-01T01:01:50;9.88;;;6.80;;
60088;SDS011;45961;53.574;55.878;2023-03-01T01:02:54;8.05;;;6.03;;
60088;SDS011;45961;53.574;55.878;2023-03-01T01:03:59;10.07;;;7.10;;
60088;SDS011;45961;53.574;55.878;2023-03-01T01:05:04;8.93;;;6.40;;
60088;SDS011;45961;53.574;55.878;2023-03-01T01:06:12;10.02;;;7.15;;
60088;SDS011;45961;53.574;55.878;2023-03-01T01:07:14;10.77;;;6.95;;
60088;SDS011;45961;53.574;55.878;2023-03-01T01:08:15;10.43;;;6.90;;
60088;SDS011;45961;53.574;55.878;2023-03-01T01:09:17;9.73;;;6.90;;
60088;SDS011;45961;53.574;55.878;2023-03-01T01:10:18;9.75;;;6.68;;
60088;SDS011;45961;53.574;55.878;2023-03-01T01:11:20;7.80;;;5.80;;
60088;SDS011;45961;53.574;55.878;2023-03-01T01:12:22;11.38;;;6.72;;
60088;SDS011;45961;53.574;55.878;2023-03-01T01:13:23;10.40;;;6.75;;
60088;SDS011;45961;53.574;55.878;2023-03-01T01:14:24;11.20;;;7.40;;
60088;SDS011;45961;53.574;55.878;2023-03-01T01:15:26;10.30;;;7.55;;
60088;SDS011;45961;53.574;55.878;2023-03-01T01:17:31;7.68;;;6.15;;
60088;SDS011;45961;53.574;55.878;2023-03-01T01:18:32;10.40;;;7.53;;
60088;SDS011;45961;53.574;55.878;2023-03-01T01:19:33;9.23;;;6.03;;
60088;SDS011;45961;53.574;55.878;2023-03-01T01:20:34;10.18;;;7.05;;
60088;SDS011;45961;53.574;55.878;2023-03-01T01:21:36;10.40;;;6.90;;
60088;SDS011;45961;53.574;55.878;2023-03-01T01:23:39;10.02;;;6.82;;
60088;SDS011;45961;53.574;55.878;2023-03-01T01:24:41;11.13;;;6.63;;
60088;SDS011;45961;53.574;55.878;2023-03-01T01:25:44;11.32;;;7.80;;
60088;SDS011;45961;53.574;55.878;2023-03-01T01:26:45;12.38;;;7.07;;
60088;SDS011;45961;53.574;55.878;2023-03-01T01:27:48;11.98;;;7.93;;
60088;SDS011;45961;53.574;55.878;2023-03-01T01:28:50;12.93;;;8.07;;
60088;SDS011;45961;53.574;55.878;2023-03-01T01:29:52;12.32;;;7.55;;
60088;SDS011;45961;53.574;55.878;2023-03-01T01:30:53;11.65;;;7.72;;
60088;SDS011;45961;53.574;55.878;2023-03-01T01:31:56;12.70;;;7.47;;
60088;SDS011;45961;53.574;55.878;2023-03-01T01:32:57;11.75;;;8.13;;
60088;SDS011;45961;53.574;55.878;2023-03-01T01:33:59;12.50;;;7.80;;
60088;SDS011;45961;53.574;55.878;2023-03-01T01:35:01;11.57;;;7.60;;
60088;SDS011;45961;53.574;55.878;2023-03-01T01:37:04;12.02;;;7.18;;
60088;SDS011;45961;53.574;55.878;2023-03-01T01:38:08;11.52;;;8.32;;
60088;SDS011;45961;53.574;55.878;2023-03-01T01:39:09;13.40;;;9.07;;
60088;SDS011;45961;53.574;55.878;2023-03-01T01:40:14;12.45;;;7.93;;
60088;SDS011;45961;53.574;55.878;2023-03-01T01:41:15;12.95;;;8.73;;
60088;SDS011;45961;53.574;55.878;2023-03-01T01:42:17;10.48;;;6.85;;
60088;SDS011;45961;53.574;55.878;2023-03-01T01:43:25;10.20;;;6.85;;
60088;SDS011;45961;53.574;55.878;2023-03-01T01:44:29;9.82;;;7.25;;
60088;SDS011;45961;53.574;55.878;2023-03-01T01:45:34;10.25;;;7.07;;
60088;SDS011;45961;53.574;55.878;2023-03-01T01:46:37;10.40;;;7.10;;
60088;SDS011;45961;53.574;55.878;2023-03-01T01:47:41;9.48;;;6.70;;
60088;SDS011;45961;53.574;55.878;2023-03-01T01:48:46;11.10;;;6.90;;
60088;SDS011;45961;53.574;55.878;2023-03-01T01:49:51;9.88;;;6.97;;
60088;SDS011;45961;53.574;55.878;2023-03-01T01:50:58;10.38;;;6.55;;
60088;SDS011;45961;53.574;55.878;2023-03-01T01:52:04;8.52;;;6.32;;
60088;SDS011;45961;53.574;55.878;2023-03-01T01:53:18;9.30;;;6.82;;
60088;SDS011;45961;53.574;55.878;2023-03-01T01:54:23;9.27;;;6.88;;
60088;SDS011;45961;53.574;55.878;2023-03-01T01:55:30;9.23;;;6.55;;
60088;SDS011;45961;53.574;55.878;2023-03-01T01:56:31;9.23;;;6.25;;
60088;SDS011;45961;53.574;55.878;2023-03-01T01:57:34;9.10;;;6.47;;
60088;SDS011;45961;53.574;55.878;2023-03-01T01:58:38;9.50;;;5.63;;
60088;SDS011;45961;53.574;55.878;2023-03-01T01:59:42;9.68;;;6.05;;
60088;SDS011;45961;53.574;55.878;2023-03-01T02:00:46;7.75;;;5.60;;
60088;SDS011;45961;53.574;55.878;2023-03-01T02:01:48;8.35;;;6.07;;
60088;SDS011;45961;53.574;55.878;2023-03-01T02:02:50;11.25;;;6.93;;
60088;SDS011;45961;53.574;55.878;2023-03-01T02:03:57;9.48;;;5.88;;
60088;SDS011;45961;53.574;55.878;2023-03-01T02:05:16;8.82;;;6.70;;
60088;SDS011;45961;53.574;55.878;2023-03-01T02:06:39;10.10;;;6.97;;
60088;SDS011;45961;53.574;55.878;2023-03-01T02:07:45;13.20;;;7.13;;
60088;SDS011;45961;53.574;55.878;2023-03-01T02:08:48;11.07;;;7.80;;
60088;SDS011;45961;53.574;55.878;2023-03-01T02:09:52;9.55;;;7.63;;
60088;SDS011;45961;53.574;55.878;2023-03-01T02:11:56;10.88;;;6.10;;
60088;SDS011;45961;53.574;55.878;2023-03-01T02:12:58;9.48;;;6.40;;
60088;SDS011;45961;53.574;55.878;2023-03-01T02:14:01;9.38;;;6.03;;
60088;SDS011;45961;53.574;55.878;2023-03-01T02:15:02;9.82;;;6.30;;
60088;SDS011;45961;53.574;55.878;2023-03-01T02:17:05;8.27;;;5.55;;
60088;SDS011;45961;53.574;55.878;2023-03-01T02:18:07;8.90;;;5.45;;
60088;SDS011;45961;53.574;55.878;2023-03-01T02:19:11;9.60;;;6.15;;
60088;SDS011;45961;53.574;55.878;2023-03-01T02:20:44;8.07;;;5.43;;
60088;SDS011;45961;53.574;55.878;2023-03-01T02:21:51;11.70;;;7.20;;
60088;SDS011;45961;53.574;55.878;2023-03-01T02:23:00;11.50;;;7.05;;
60088;SDS011;45961;53.574;55.878;2023-03-01T02:27:49;10.65;;;6.97;;
60088;SDS011;45961;53.574;55.878;2023-03-01T02:28:57;10.60;;;7.47;;
60088;SDS011;45961;53.574;55.878;2023-03-01T02:29:59;9.18;;;6.50;;
60088;SDS011;45961;53.574;55.878;2023-03-01T02:31:00;10.93;;;7.78;;
60088;SDS011;45961;53.574;55.878;2023-03-01T02:32:22;10.77;;;7.03;;
60088;SDS011;45961;53.574;55.878;2023-03-01T02:33:26;10.02;;;7.13;;
60088;SDS011;45961;53.574;55.878;2023-03-01T02:34:27;11.35;;;7.15;;
60088;SDS011;45961;53.574;55.878;2023-03-01T02:35:38;9.57;;;6.60;;
60088;SDS011;45961;53.574;55.878;2023-03-01T02:36:42;11.02;;;7.53;;
60088;SDS011;45961;53.574;55.878;2023-03-01T02:37:46;9.55;;;7.00;;
60088;SDS011;45961;53.574;55.878;2023-03-01T02:38:48;10.35;;;6.70;;
60088;SDS011;45961;53.574;55.878;2023-03-01T02:39:57;7.30;;;5.45;;
60088;SDS011;45961;53.574;55.878;2023-03-01T02:41:03;7.50;;;5.60;;
60088;SDS011;45961;53.574;55.878;2023-03-01T02:42:08;6.95;;;5.28;;
60088;SDS011;45961;53.574;55.878;2023-03-01T02:43:13;6.10;;;4.93;;
60088;SDS011;45961;53.574;55.878;2023-03-01T02:44:15;7.05;;;5.30;;
60088;SDS011;45961;53.574;55.878;2023-03-01T02:45:16;5.97;;;4.63;;
60088;SDS011;45961;53.574;55.878;2023-03-01T02:46:20;7.75;;;5.18;;
60088;SDS011;45961;53.574;55.878;2023-03-01T02:47:23;7.43;;;5.40;;
60088;SDS011;45961;53.574;55.878;2023-03-01T02:48:24;7.13;;;5.43;;
60088;SDS011;45961;53.574;55.878;2023-03-01T02:49:28;6.47;;;4.53;;
60088;SDS011;45961;53.574;55.878;2023-03-01T02:50:43;7.68;;;4.82;;
60088;SDS011;45961;53.574;55.878;2023-03-01T02:53:21;7.07;;;5.20;;
60088;SDS011;45961;53.574;55.878;2023-03-01T02:55:34;6.85;;;4.88;;
60088;SDS011;45961;53.574;55.878;2023-03-01T02:56:35;6.90;;;4.85;;
60088;SDS011;45961;53.574;55.878;2023-03-01T02:57:38;8.63;;;6.15;;
60088;SDS011;45961;53.574;55.878;2023-03-01T02:58:41;5.97;;;4.78;;
60088;SDS011;45961;53.574;55.878;2023-03-01T02:59:46;6.32;;;4.38;;
60088;SDS011;45961;53.574;55.878;2023-03-01T03:00:48;7.57;;;5.25;;
60088;SDS011;45961;53.574;55.878;2023-03-01T03:01:50;7.57;;;5.32;;
60088;SDS011;45961;53.574;55.878;2023-03-01T03:03:56;8.10;;;5.53;;
60088;SDS011;45961;53.574;55.878;2023-03-01T03:04:58;7.45;;;6.10;;
60088;SDS011;45961;53.574;55.878;2023-03-01T03:05:59;9.23;;;6.47;;
60088;SDS011;45961;53.574;55.878;2023-03-01T03:07:00;9.55;;;6.32;;
60088;SDS011;45961;53.574;55.878;2023-03-01T03:08:01;9.02;;;6.30;;
60088;SDS011;45961;53.574;55.878;2023-03-01T03:09:06;7.75;;;5.38;;
60088;SDS011;45961;53.574;55.878;2023-03-01T03:10:10;10.63;;;6.95;;
60088;SDS011;45961;53.574;55.878;2023-03-01T03:11:14;8.38;;;6.03;;
60088;SDS011;45961;53.574;55.878;2023-03-01T03:12:15;6.40;;;5.00;;
60088;SDS011;45961;53.574;55.878;2023-03-01T03:13:16;8.10;;;6.00;;
60088;SDS011;45961;53.574;55.878;2023-03-01T03:14:17;6.93;;;4.90;;
60088;SDS011;45961;53.574;55.878;2023-03-01T03:15:21;8.07;;;5.63;;
60088;SDS011;45961;53.574;55.878;2023-03-01T03:16:23;7.03;;;5.20;;
60088;SDS011;45961;53.574;55.878;2023-03-01T03:17:25;7.72;;;5.78;;
60088;SDS011;45961;53.574;55.878;2023-03-01T03:18:26;9.18;;;5.65;;
60088;SDS011;45961;53.574;55.878;2023-03-01T03:19:27;9.32;;;5.85;;
60088;SDS011;45961;53.574;55.878;2023-03-01T03:20:28;8.48;;;6.07;;
60088;SDS011;45961;53.574;55.878;2023-03-01T03:21:32;7.72;;;6.43;;
60088;SDS011;45961;53.574;55.878;2023-03-01T03:22:34;8.00;;;5.68;;
60088;SDS011;45961;53.574;55.878;2023-03-01T03:23:36;7.38;;;5.47;;
60088;SDS011;45961;53.574;55.878;2023-03-01T03:24:37;7.93;;;6.22;;
60088;SDS011;45961;53.574;55.878;2023-03-01T03:26:39;9.27;;;6.65;;
60088;SDS011;45961;53.574;55.878;2023-03-01T03:27:41;9.82;;;6.80;;
60088;SDS011;45961;53.574;55.878;2023-03-01T03:28:44;10.23;;;6.43;;
60088;SDS011;45961;53.574;55.878;2023-03-01T03:29:47;8.30;;;6.95;;
60088;SDS011;45961;53.574;55.878;2023-03-01T03:30:48;9.63;;;6.97;;
60088;SDS011;45961;53.574;55.878;2023-03-01T03:31:50;8.93;;;6.88;;
60088;SDS011;45961;53.574;55.878;2023-03-01T03:32:52;10.80;;;6.90;;
60088;SDS011;45961;53.574;55.878;2023-03-01T03:33:53;8.75;;;6.50;;
60088;SDS011;45961;53.574;55.878;2023-03-01T03:34:54;9.60;;;6.82;;
60088;SDS011;45961;53.574;55.878;2023-03-01T03:35:55;12.80;;;7.80;;
60088;SDS011;45961;53.574;55.878;2023-03-01T03:36:57;10.00;;;7.15;;
60088;SDS011;45961;53.574;55.878;2023-03-01T03:38:00;9.05;;;6.78;;
60088;SDS011;45961;53.574;55.878;2023-03-01T03:39:07;11.50;;;7.68;;
60088;SDS011;45961;53.574;55.878;2023-03-01T03:40:08;12.65;;;7.50;;
60088;SDS011;45961;53.574;55.878;2023-03-01T03:41:15;10.80;;;7.32;;
60088;SDS011;45961;53.574;55.878;2023-03-01T03:42:16;9.77;;;6.90;;
60088;SDS011;45961;53.574;55.878;2023-03-01T03:43:19;11.45;;;7.43;;
60088;SDS011;45961;53.574;55.878;2023-03-01T03:44:21;11.57;;;8.45;;
60088;SDS011;45961;53.574;55.878;2023-03-01T03:45:22;12.65;;;8.18;;
60088;SDS011;45961;53.574;55.878;2023-03-01T03:46:23;9.90;;;7.40;;
60088;SDS011;45961;53.574;55.878;2023-03-01T03:47:24;10.02;;;7.20;;
60088;SDS011;45961;53.574;55.878;2023-03-01T03:48:25;9.52;;;6.82;;
60088;SDS011;45961;53.574;55.878;2023-03-01T03:49:27;12.35;;;7.93;;
60088;SDS011;45961;53.574;55.878;2023-03-01T03:50:28;11.40;;;8.27;;
60088;SDS011;45961;53.574;55.878;2023-03-01T03:51:29;11.48;;;7.90;;
60088;SDS011;45961;53.574;55.878;2023-03-01T03:52:30;11.00;;;8.07;;
60088;SDS011;45961;53.574;55.878;2023-03-01T03:53:31;11.77;;;7.72;;
60088;SDS011;45961;53.574;55.878;2023-03-01T03:54:33;11.13;;;7.60;;
60088;SDS011;45961;53.574;55.878;2023-03-01T03:55:35;11.68;;;7.55;;
60088;SDS011;45961;53.574;55.878;2023-03-01T03:56:39;10.68;;;7.60;;
60088;SDS011;45961;53.574;55.878;2023-03-01T03:57:40;12.55;;;8.07;;
60088;SDS011;45961;53.574;55.878;2023-03-01T03:58:41;11.73;;;7.47;;
60088;SDS011;45961;53.574;55.878;2023-03-01T03:59:44;11.35;;;7.05;;
60088;SDS011;45961;53.574;55.878;2023-03-01T04:00:46;10.10;;;7.50;;
60088;SDS011;45961;53.574;55.878;2023-03-01T04:01:48;9.65;;;6.72;;
60088;SDS011;45961;53.574;55.878;2023-03-01T04:03:51;11.02;;;7.40;;
60088;SDS011;45961;53.574;55.878;2023-03-01T04:04:54;9.15;;;6.72;;
60088;SDS011;45961;53.574;55.878;2023-03-01T04:05:59;12.15;;;7.75;;
60088;SDS011;45961;53.574;55.878;2023-03-01T04:07:01;10.13;;;6.45;;
60088;SDS011;45961;53.574;55.878;2023-03-01T04:08:02;9.90;;;7.20;;
60088;SDS011;45961;53.574;55.878;2023-03-01T04:09:04;9.27;;;6.57;;
60088;SDS011;45961;53.574;55.878;2023-03-01T04:10:06;12.05;;;8.30;;
60088;SDS011;45961;53.574;55.878;2023-03-01T04:11:10;11.18;;;7.07;;
60088;SDS011;45961;53.574;55.878;2023-03-01T04:12:27;12.15;;;7.43;;
60088;SDS011;45961;53.574;55.878;2023-03-01T04:13:28;9.75;;;6.70;;
60088;SDS011;45961;53.574;55.878;2023-03-01T04:14:29;10.07;;;7.18;;
60088;SDS011;45961;53.574;55.878;2023-03-01T04:15:30;11.32;;;7.95;;
60088;SDS011;45961;53.574;55.878;2023-03-01T04:16:33;9.05;;;6.72;;
60088;SDS011;45961;53.574;55.878;2023-03-01T04:17:34;9.13;;;7.03;;
60088;SDS011;45961;53.574;55.878;2023-03-01T04:18:37;11.90;;;6.88;;
60088;SDS011;45961;53.574;55.878;2023-03-01T04:19:38;11.85;;;7.72;;
60088;SDS011;45961;53.574;55.878;2023-03-01T04:20:40;10.73;;;6.80;;
60088;SDS011;45961;53.574;55.878;2023-03-01T04:21:42;11.52;;;7.80;;
60088;SDS011;45961;53.574;55.878;2023-03-01T04:22:43;11.43;;;7.28;;
60088;SDS011;45961;53.574;55.878;2023-03-01T04:23:47;15.45;;;7.82;;
60088;SDS011;45961;53.574;55.878;2023-03-01T04:25:50;11.50;;;6.47;;
60088;SDS011;45961;53.574;55.878;2023-03-01T04:26:56;11.60;;;7.35;;
60088;SDS011;45961;53.574;55.878;2023-03-01T04:27:57;10.82;;;7.00;;
60088;SDS011;45961;53.574;55.878;2023-03-01T04:28:58;12.38;;;8.32;;
60088;SDS011;45961;53.574;55.878;2023-03-01T04:29:59;13.50;;;7.38;;
60088;SDS011;45961;53.574;55.878;2023-03-01T04:31:02;12.55;;;8.05;;
60088;SDS011;45961;53.574;55.878;2023-03-01T04:32:13;13.10;;;8.50;;
60088;SDS011;45961;53.574;55.878;2023-03-01T04:33:16;11.20;;;7.00;;
60088;SDS011;45961;53.574;55.878;2023-03-01T04:34:18;12.07;;;7.90;;
60088;SDS011;45961;53.574;55.878;2023-03-01T04:35:20;12.25;;;8.52;;
60088;SDS011;45961;53.574;55.878;2023-03-01T04:36:22;10.55;;;7.45;;
60088;SDS011;45961;53.574;55.878;2023-03-01T04:37:24;13.02;;;8.65;;
60088;SDS011;45961;53.574;55.878;2023-03-01T04:39:27;11.60;;;6.50;;
60088;SDS011;45961;53.574;55.878;2023-03-01T04:40:28;12.00;;;7.53;;
60088;SDS011;45961;53.574;55.878;2023-03-01T04:41:30;9.60;;;6.78;;
60088;SDS011;45961;53.574;55.878;2023-03-01T04:42:31;12.50;;;7.63;;
60088;SDS011;45961;53.574;55.878;2023-03-01T04:43:32;12.25;;;6.88;;
60088;SDS011;45961;53.574;55.878;2023-03-01T04:44:34;12.23;;;6.45;;
60088;SDS011;45961;53.574;55.878;2023-03-01T04:45:35;10.82;;;7.63;;
60088;SDS011;45961;53.574;55.878;2023-03-01T04:46:37;10.82;;;7.45;;
60088;SDS011;45961;53.574;55.878;2023-03-01T04:47:41;10.45;;;7.28;;
60088;SDS011;45961;53.574;55.878;2023-03-01T04:48:45;8.32;;;6.57;;
60088;SDS011;45961;53.574;55.878;2023-03-01T04:49:47;10.43;;;7.47;;
60088;SDS011;45961;53.574;55.878;2023-03-01T04:50:48;11.13;;;7.38;;
60088;SDS011;45961;53.574;55.878;2023-03-01T04:51:49;8.30;;;5.97;;
60088;SDS011;45961;53.574;55.878;2023-03-01T04:52:51;10.32;;;7.03;;
60088;SDS011;45961;53.574;55.878;2023-03-01T04:53:52;11.50;;;7.20;;
60088;SDS011;45961;53.574;55.878;2023-03-01T04:54:54;11.00;;;7.05;;
60088;SDS011;45961;53.574;55.878;2023-03-01T04:55:55;12.38;;;7.30;;
60088;SDS011;45961;53.574;55.878;2023-03-01T04:56:56;10.10;;;6.43;;
60088;SDS011;45961;53.574;55.878;2023-03-01T04:57:58;10.20;;;6.88;;
60088;SDS011;45961;53.574;55.878;2023-03-01T05:00:01;9.50;;;6.45;;
60088;SDS011;45961;53.574;55.878;2023-03-01T05:01:20;10.30;;;6.55;;
60088;SDS011;45961;53.574;55.878;2023-03-01T05:02:22;10.95;;;7.18;;
60088;SDS011;45961;53.574;55.878;2023-03-01T05:03:23;12.55;;;7.07;;
60088;SDS011;45961;53.574;55.878;2023-03-01T05:04:30;10.98;;;7.43;;
60088;SDS011;45961;53.574;55.878;2023-03-01T05:05:32;13.30;;;8.00;;
60088;SDS011;45961;53.574;55.878;2023-03-01T05:06:36;13.63;;;7.88;;
60088;SDS011;45961;53.574;55.878;2023-03-01T05:07:37;12.52;;;8.20;;
60088;SDS011;45961;53.574;55.878;2023-03-01T05:08:39;9.13;;;7.10;;
60088;SDS011;45961;53.574;55.878;2023-03-01T05:09:40;12.25;;;7.80;;
60088;SDS011;45961;53.574;55.878;2023-03-01T05:10:41;9.65;;;7.15;;
60088;SDS011;45961;53.574;55.878;2023-03-01T05:11:42;10.48;;;7.68;;
60088;SDS011;45961;53.574;55.878;2023-03-01T05:12:47;13.80;;;8.18;;
60088;SDS011;45961;53.574;55.878;2023-03-01T05:13:48;14.43;;;8.10;;
60088;SDS011;45961;53.574;55.878;2023-03-01T05:14:50;14.02;;;8.25;;
60088;SDS011;45961;53.574;55.878;2023-03-01T05:15:55;9.35;;;6.90;;
60088;SDS011;45961;53.574;55.878;2023-03-01T05:16:58;12.18;;;7.95;;
60088;SDS011;45961;53.574;55.878;2023-03-01T05:18:04;12.82;;;7.75;;
60088;SDS011;45961;53.574;55.878;2023-03-01T05:19:11;7.25;;;4.45;;
60088;SDS011;45961;53.574;55.878;2023-03-01T05:20:15;10.05;;;6.95;;
60088;SDS011;45961;53.574;55.878;2023-03-01T05:21:16;10.57;;;7.30;;
60088;SDS011;45961;53.574;55.878;2023-03-01T05:22:18;13.15;;;6.75;;
60088;SDS011;45961;53.574;55.878;2023-03-01T05:23:37;8.35;;;6.32;;
60088;SDS011;45961;53.574;55.878;2023-03-01T05:24:38;10.18;;;6.82;;
60088;SDS011;45961;53.574;55.878;2023-03-01T05:25:39;12.20;;;6.82;;
60088;SDS011;45961;53.574;55.878;2023-03-01T05:26:40;11.32;;;7.25;;
60088;SDS011;45961;53.574;55.878;2023-03-01T05:27:41;10.27;;;6.68;;
60088;SDS011;45961;53.574;55.878;2023-03-01T05:28:43;10.50;;;7.13;;
60088;SDS011;45961;53.574;55.878;2023-03-01T05:30:45;9.25;;;5.82;;
60088;SDS011;45961;53.574;55.878;2023-03-01T05:31:47;10.15;;;6.25;;
60088;SDS011;45961;53.574;55.878;2023-03-01T05:32:49;13.80;;;7.53;;
60088;SDS011;45961;53.574;55.878;2023-03-01T05:33:56;13.10;;;8.32;;
60088;SDS011;45961;53.574;55.878;2023-03-01T05:34:57;13.60;;;8.15;;
60088;SDS011;45961;53.574;55.878;2023-03-01T05:35:59;12.15;;;7.82;;
60088;SDS011;45961;53.574;55.878;2023-03-01T05:37:01;11.55;;;8.07;;
60088;SDS011;45961;53.574;55.878;2023-03-01T05:38:02;12.25;;;7.03;;
60088;SDS011;45961;53.574;55.878;2023-03-01T05:39:03;11.30;;;7.07;;
60088;SDS011;45961;53.574;55.878;2023-03-01T05:40:05;12.43;;;7.53;;
60088;SDS011;45961;53.574;55.878;2023-03-01T05:41:13;10.55;;;7.57;;
60088;SDS011;45961;53.574;55.878;2023-03-01T05:42:17;9.82;;;6.20;;
60088;SDS011;45961;53.574;55.878;2023-03-01T05:43:18;8.95;;;6.22;;
60088;SDS011;45961;53.574;55.878;2023-03-01T05:44:19;9.90;;;6.38;;
60088;SDS011;45961;53.574;55.878;2023-03-01T05:45:21;9.50;;;6.97;;
60088;SDS011;45961;53.574;55.878;2023-03-01T05:46:24;10.98;;;6.88;;
60088;SDS011;45961;53.574;55.878;2023-03-01T05:47:25;7.95;;;6.22;;
60088;SDS011;45961;53.574;55.878;2023-03-01T05:48:26;7.80;;;5.93;;
60088;SDS011;45961;53.574;55.878;2023-03-01T05:49:27;8.73;;;5.93;;
60088;SDS011;45961;53.574;55.878;2023-03-01T05:50:28;10.10;;;6.57;;
60088;SDS011;45961;53.574;55.878;2023-03-01T05:51:32;8.90;;;5.93;;
60088;SDS011;45961;53.574;55.878;2023-03-01T05:52:34;9.25;;;6.07;;
60088;SDS011;45961;53.574;55.878;2023-03-01T05:53:35;10.68;;;5.88;;
60088;SDS011;45961;53.574;55.878;2023-03-01T05:54:36;10.07;;;6.35;;
60088;SDS011;45961;53.574;55.878;2023-03-01T05:56:39;8.93;;;5.95;;
60088;SDS011;45961;53.574;55.878;2023-03-01T05:57:40;9.07;;;6.65;;
60088;SDS011;45961;53.574;55.878;2023-03-01T05:58:41;10.68;;;6.40;;
60088;SDS011;45961;53.574;55.878;2023-03-01T05:59:42;13.02;;;6.78;;
60088;SDS011;45961;53.574;55.878;2023-03-01T06:00:43;10.75;;;6.57;;
60088;SDS011;45961;53.574;55.878;2023-03-01T06:01:45;10.65;;;6.80;;
60088;SDS011;45961;53.574;55.878;2023-03-01T06:02:46;10.75;;;6.15;;
60088;SDS011;45961;53.574;55.878;2023-03-01T06:04:50;9.30;;;5.75;;
60088;SDS011;45961;53.574;55.878;2023-03-01T06:05:55;8.40;;;5.80;;
60088;SDS011;45961;53.574;55.878;2023-03-01T06:06:58;9.13;;;6.40;;
60088;SDS011;45961;53.574;55.878;2023-03-01T06:07:59;9.82;;;6.22;;
60088;SDS011;45961;53.574;55.878;2023-03-01T06:09:00;8.82;;;5.85;;
60088;SDS011;45961;53.574;55.878;2023-03-01T06:10:02;8.63;;;5.90;;
60088;SDS011;45961;53.574;55.878;2023-03-01T06:11:04;9.00;;;5.22;;
60088;SDS011;45961;53.574;55.878;2023-03-01T06:12:07;11.25;;;7.45;;
60088;SDS011;45961;53.574;55.878;2023-03-01T06:13:08;11.43;;;7.25;;
60088;SDS011;45961;53.574;55.878;2023-03-01T06:15:12;10.57;;;6.05;;
60088;SDS011;45961;53.574;55.878;2023-03-01T06:16:15;12.05;;;7.03;;
60088;SDS011;45961;53.574;55.878;2023-03-01T06:17:15;9.32;;;6.28;;
60088;SDS011;45961;53.574;55.878;2023-03-01T06:18:16;11.48;;;7.10;;
60088;SDS011;45961;53.574;55.878;2023-03-01T06:19:19;10.93;;;6.68;;
60088;SDS011;45961;53.574;55.878;2023-03-01T06:20:21;9.30;;;6.53;;
60088;SDS011;45961;53.574;55.878;2023-03-01T06:21:23;9.65;;;6.72;;
60088;SDS011;45961;53.574;55.878;2023-03-01T06:22:24;10.57;;;6.70;;
60088;SDS011;45961;53.574;55.878;2023-03-01T06:23:25;10.82;;;6.85;;
60088;SDS011;45961;53.574;55.878;2023-03-01T06:24:26;9.43;;;6.20;;
60088;SDS011;45961;53.574;55.878;2023-03-01T06:25:30;10.52;;;6.90;;
60088;SDS011;45961;53.574;55.878;2023-03-01T06:26:31;9.27;;;6.70;;
60088;SDS011;45961;53.574;55.878;2023-03-01T06:27:32;11.52;;;7.38;;
60088;SDS011;45961;53.574;55.878;2023-03-01T06:28:33;10.95;;;7.18;;
60088;SDS011;45961;53.574;55.878;2023-03-01T06:29:34;10.95;;;7.28;;
60088;SDS011;45961;53.574;55.878;2023-03-01T06:30:35;10.15;;;6.63;;
60088;SDS011;45961;53.574;55.878;2023-03-01T06:31:36;9.30;;;6.93;;
60088;SDS011;45961;53.574;55.878;2023-03-01T06:32:37;9.57;;;7.22;;
60088;SDS011;45961;53.574;55.878;2023-03-01T06:33:42;10.10;;;6.93;;
60088;SDS011;45961;53.574;55.878;2023-03-01T06:34:45;10.57;;;6.78;;
60088;SDS011;45961;53.574;55.878;2023-03-01T06:35:46;8.25;;;5.80;;